Time;durP1;ratioP1;P1;durP2;ratioP2;P2;SDS_P1;SDS_P2;PMS_P1;PMS_P2;Temp;Humidity;BMP_temperature;BMP_pressure;BME280_temperature;BME280_humidity;BME280_pressure;Samples;Min_cycle;Max_cycle;Signal;HPM_P1;HPM_P2
2022/09/22 00:01:05;;;;;;;1.90;1.30;;;;;;;;;;5054342;28;20021;-79
2022/09/22 00:03:31;;;;;;;1.80;1.02;;;;;;;;;;5054707;28;20473;-80
2022/09/22 00:06:08;;;;;;;2.40;0.98;;;;;;;;;;5034582;28;20050;-79
2022/09/22 00:08:35;;;;;;;1.05;1.05;;;;;;;;;;5053960;28;20021;-79
2022/09/22 00:11:02;;;;;;;1.35;1.13;;;;;;;;;;5050786;28;20032;-79
2022/09/22 00:13:27;;;;;;;3.97;1.10;;;;;;;;;;5033883;28;20491;-79
2022/09/22 00:15:53;;;;;;;1.30;1.20;;;;;;;;;;5034568;28;20022;-79
2022/09/22 00:18:18;;;;;;;3.60;1.37;;;;;;;;;;5046766;28;20028;-79
2022/09/22 00:20:43;;;;;;;2.05;1.38;;;;;;;;;;5033589;28;20764;-79
2022/09/22 00:23:09;;;;;;;2.28;2.05;;;;;;;;;;5033446;28;20628;-79
2022/09/22 00:25:37;;;;;;;3.65;1.67;;;;;;;;;;5033621;28;20124;-79
2022/09/22 00:28:03;;;;;;;2.20;1.15;;;;;;;;;;5034656;28;20029;-79
2022/09/22 00:30:30;;;;;;;6.65;1.30;;;;;;;;;;5034373;28;20036;-79
2022/09/22 00:32:55;;;;;;;2.00;1.40;;;;;;;;;;5034402;28;20017;-80
2022/09/22 00:35:20;;;;;;;1.50;1.00;;;;;;;;;;5046771;28;20071;-80
2022/09/22 00:37:46;;;;;;;2.40;1.50;;;;;;;;;;5033264;28;20025;-80
2022/09/22 00:40:11;;;;;;;2.08;1.25;;;;;;;;;;5033229;28;20266;-80
2022/09/22 00:42:36;;;;;;;2.55;1.05;;;;;;;;;;5033526;28;20021;-80
2022/09/22 00:45:02;;;;;;;3.03;1.42;;;;;;;;;;5047164;28;20459;-80
2022/09/22 00:47:30;;;;;;;2.35;1.63;;;;;;;;;;5033127;28;20029;-80
2022/09/22 00:50:06;;;;;;;2.33;1.48;;;;;;;;;;5048370;28;20021;-79
2022/09/22 00:52:45;;;;;;;1.85;1.20;;;;;;;;;;5044650;28;20108;-79
2022/09/22 00:55:17;;;;;;;1.75;1.27;;;;;;;;;;5034513;28;20049;-79
2022/09/22 00:57:43;;;;;;;1.80;1.00;;;;;;;;;;5033084;28;20475;-81
2022/09/22 01:00:10;;;;;;;1.40;1.25;;;;;;;;;;5032656;28;20029;-81
2022/09/22 01:02:36;;;;;;;2.05;1.70;;;;;;;;;;5032170;28;20048;-80
2022/09/22 01:05:01;;;;;;;2.50;1.20;;;;;;;;;;5032562;28;20076;-80
2022/09/22 01:07:27;;;;;;;1.60;1.50;;;;;;;;;;5032850;28;20029;-80
2022/09/22 01:09:54;;;;;;;0.98;0.88;;;;;;;;;;5032742;28;20468;-80
2022/09/22 01:12:20;;;;;;;2.17;1.45;;;;;;;;;;5032773;28;20156;-80
2022/09/22 01:15:04;;;;;;;1.73;1.60;;;;;;;;;;5038113;28;20056;-80
2022/09/22 01:17:29;;;;;;;1.70;1.60;;;;;;;;;;5046675;28;20028;-82
2022/09/22 01:20:15;;;;;;;2.03;1.77;;;;;;;;;;5052548;28;20025;-79
2022/09/22 01:22:59;;;;;;;2.10;1.48;;;;;;;;;;5051859;28;20290;-80
2022/09/22 01:25:43;;;;;;;1.73;1.63;;;;;;;;;;5032077;28;20014;-79
2022/09/22 01:28:23;;;;;;;4.78;1.77;;;;;;;;;;5050110;28;20094;-79
2022/09/22 01:31:03;;;;;;;2.97;1.50;;;;;;;;;;5052227;28;20477;-79
2022/09/22 01:33:40;;;;;;;4.22;2.47;;;;;;;;;;5052734;28;20032;-80
2022/09/22 01:36:06;;;;;;;2.10;1.63;;;;;;;;;;5037052;28;20013;-80
2022/09/22 01:38:41;;;;;;;6.53;1.80;;;;;;;;;;5033145;28;20025;-80
2022/09/22 01:41:09;;;;;;;3.33;2.42;;;;;;;;;;5031703;28;20264;-79
2022/09/22 01:43:41;;;;;;;2.10;1.77;;;;;;;;;;5047437;28;20025;-80
2022/09/22 01:46:12;;;;;;;3.67;1.60;;;;;;;;;;5031999;28;20018;-80
2022/09/22 01:48:40;;;;;;;2.25;1.50;;;;;;;;;;5032461;28;20021;-79
2022/09/22 01:51:12;;;;;;;3.33;1.75;;;;;;;;;;5031954;28;20486;-79
2022/09/22 01:53:42;;;;;;;3.45;1.85;;;;;;;;;;5048358;28;20155;-79
2022/09/22 01:56:10;;;;;;;3.92;2.53;;;;;;;;;;5032288;28;20028;-79
2022/09/22 01:58:39;;;;;;;2.13;1.48;;;;;;;;;;5034073;28;20026;-79
2022/09/22 02:01:15;;;;;;;2.22;1.30;;;;;;;;;;5042567;28;20106;-80
2022/09/22 02:03:43;;;;;;;3.28;1.88;;;;;;;;;;5032353;28;20076;-79
2022/09/22 02:06:09;;;;;;;2.65;1.60;;;;;;;;;;5031562;28;20049;-79
2022/09/22 02:08:44;;;;;;;1.87;1.47;;;;;;;;;;5031749;28;20024;-79
2022/09/22 02:11:13;;;;;;;1.60;1.48;;;;;;;;;;5035137;28;20266;-79
2022/09/22 02:13:39;;;;;;;3.58;1.55;;;;;;;;;;5041239;28;20500;-79
2022/09/22 02:16:07;;;;;;;3.08;1.40;;;;;;;;;;5031484;28;20045;-80
2022/09/22 02:18:34;;;;;;;3.30;1.67;;;;;;;;;;5031313;28;20021;-80
2022/09/22 02:21:00;;;;;;;2.67;1.88;;;;;;;;;;5037773;28;20068;-80
2022/09/22 02:23:26;;;;;;;2.72;2.03;;;;;;;;;;5047696;28;20048;-79
2022/09/22 02:25:52;;;;;;;2.17;1.52;;;;;;;;;;5043254;28;20508;-79
2022/09/22 02:28:19;;;;;;;2.38;1.95;;;;;;;;;;5031273;28;20083;-79
2022/09/22 02:30:45;;;;;;;1.70;1.40;;;;;;;;;;5042993;28;20048;-79
2022/09/22 02:33:12;;;;;;;1.83;1.50;;;;;;;;;;5051166;28;20469;-79
2022/09/22 02:35:38;;;;;;;1.65;1.30;;;;;;;;;;5051230;28;20021;-79
2022/09/22 02:38:03;;;;;;;3.50;1.15;;;;;;;;;;5051039;28;20017;-79
2022/09/22 02:40:39;;;;;;;2.63;1.30;;;;;;;;;;5051037;28;20021;-79
2022/09/22 02:43:13;;;;;;;1.42;1.33;;;;;;;;;;5031229;28;20624;-80
2022/09/22 02:45:38;;;;;;;2.55;1.77;;;;;;;;;;5032633;28;20478;-79
2022/09/22 02:48:13;;;;;;;1.50;1.27;;;;;;;;;;5044964;28;20028;-79
2022/09/22 02:50:38;;;;;;;3.38;1.40;;;;;;;;;;5038563;28;20306;-79
2022/09/22 02:53:09;;;;;;;3.30;1.85;;;;;;;;;;5050927;28;20021;-80
2022/09/22 02:55:35;;;;;;;2.33;1.35;;;;;;;;;;5031143;28;20013;-79
2022/09/22 02:58:00;;;;;;;1.90;1.25;;;;;;;;;;5031140;28;20507;-79
2022/09/22 03:00:25;;;;;;;1.55;1.42;;;;;;;;;;5035233;28;20032;-79
2022/09/22 03:02:51;;;;;;;3.50;1.45;;;;;;;;;;5036268;28;20444;-79
2022/09/22 03:05:16;;;;;;;2.15;1.58;;;;;;;;;;5044418;28;20135;-79
2022/09/22 03:07:41;;;;;;;2.22;1.63;;;;;;;;;;5030907;28;20052;-80
2022/09/22 03:10:07;;;;;;;2.00;1.80;;;;;;;;;;5030848;28;20025;-79
2022/09/22 03:12:32;;;;;;;2.58;1.52;;;;;;;;;;5032076;28;20256;-79
2022/09/22 03:14:57;;;;;;;2.85;1.58;;;;;;;;;;5043456;28;20025;-79
2022/09/22 03:17:23;;;;;;;1.90;1.53;;;;;;;;;;5030748;28;20033;-78
2022/09/22 03:19:48;;;;;;;2.35;1.70;;;;;;;;;;5035786;28;20778;-79
2022/09/22 03:22:13;;;;;;;2.47;1.25;;;;;;;;;;5039542;28;20014;-79
2022/09/22 03:24:38;;;;;;;0.82;0.82;;;;;;;;;;5033294;28;20096;-79
2022/09/22 03:27:04;;;;;;;1.63;1.50;;;;;;;;;;5034654;28;20018;-79
2022/09/22 03:29:29;;;;;;;1.33;0.82;;;;;;;;;;5035531;28;20256;-79
2022/09/22 03:31:54;;;;;;;2.33;1.52;;;;;;;;;;5034513;28;20492;-79
2022/09/22 03:34:20;;;;;;;1.50;1.40;;;;;;;;;;5034606;28;20018;-79
2022/09/22 03:36:45;;;;;;;1.20;1.10;;;;;;;;;;5034356;28;20859;-79
2022/09/22 03:39:10;;;;;;;3.50;1.40;;;;;;;;;;5045189;28;20025;-79
2022/09/22 03:41:36;;;;;;;1.37;1.10;;;;;;;;;;5037630;28;20321;-79
2022/09/22 03:44:01;;;;;;;2.17;1.40;;;;;;;;;;5034291;28;20274;-79
2022/09/22 03:46:27;;;;;;;2.05;1.45;;;;;;;;;;5034472;28;20018;-79
2022/09/22 03:48:52;;;;;;;2.95;1.60;;;;;;;;;;5034182;28;20465;-79
2022/09/22 03:51:18;;;;;;;1.33;1.05;;;;;;;;;;5046695;28;20194;-80
2022/09/22 03:53:44;;;;;;;1.75;1.65;;;;;;;;;;5035568;28;20017;-79
2022/09/22 03:56:11;;;;;;;1.27;1.17;;;;;;;;;;5044508;28;20396;-79
2022/09/22 03:58:36;;;;;;;3.10;1.48;;;;;;;;;;5039587;28;20024;-80
2022/09/22 04:01:01;;;;;;;2.00;1.30;;;;;;;;;;5045406;28;20021;-79
2022/09/22 04:03:27;;;;;;;1.67;1.58;;;;;;;;;;5047916;28;20393;-79
2022/09/22 04:05:53;;;;;;;1.25;1.15;;;;;;;;;;5036290;28;20057;-79
2022/09/22 04:08:18;;;;;;;1.58;1.48;;;;;;;;;;5034701;28;20404;-79
2022/09/22 04:10:44;;;;;;;1.73;1.20;;;;;;;;;;5035121;28;20075;-80
2022/09/22 04:13:09;;;;;;;1.33;1.23;;;;;;;;;;5033801;28;20025;-79
2022/09/22 04:15:35;;;;;;;1.52;1.42;;;;;;;;;;5033848;28;20477;-80
2022/09/22 04:18:00;;;;;;;1.90;1.13;;;;;;;;;;5033790;28;20053;-80
2022/09/22 04:20:26;;;;;;;2.22;1.55;;;;;;;;;;5033674;28;20252;-80
2022/09/22 04:22:51;;;;;;;2.55;1.50;;;;;;;;;;5033577;28;20029;-79
2022/09/22 04:25:17;;;;;;;1.67;1.13;;;;;;;;;;5033652;28;20404;-80
2022/09/22 04:27:42;;;;;;;2.38;1.23;;;;;;;;;;5047524;28;20082;-80
2022/09/22 04:30:07;;;;;;;9.50;1.60;;;;;;;;;;5033877;28;20024;-79
2022/09/22 04:32:33;;;;;;;2.38;1.38;;;;;;;;;;5033526;28;20021;-80
2022/09/22 04:34:58;;;;;;;1.60;1.27;;;;;;;;;;5033244;28;20026;-81
2022/09/22 04:37:23;;;;;;;0.98;0.98;;;;;;;;;;5033311;28;20026;-79
2022/09/22 04:39:49;;;;;;;1.23;1.13;;;;;;;;;;5040209;28;20029;-79
2022/09/22 04:42:14;;;;;;;11.68;1.70;;;;;;;;;;5033225;28;20631;-79
2022/09/22 04:44:39;;;;;;;2.63;1.48;;;;;;;;;;5033352;28;20025;-82
2022/09/22 04:47:05;;;;;;;1.77;0.77;;;;;;;;;;5039199;28;20071;-80
2022/09/22 04:49:30;;;;;;;1.20;1.08;;;;;;;;;;5032944;28;20116;-79
2022/09/22 04:51:56;;;;;;;1.67;1.57;;;;;;;;;;5033058;28;20017;-80
2022/09/22 04:54:21;;;;;;;1.23;1.10;;;;;;;;;;5033003;28;20682;-78
2022/09/22 04:56:46;;;;;;;1.90;1.58;;;;;;;;;;5033133;28;20026;-80
2022/09/22 04:59:11;;;;;;;1.00;1.00;;;;;;;;;;5032884;28;20048;-81
2022/09/22 05:01:37;;;;;;;2.85;1.00;;;;;;;;;;5046424;28;20252;-79
2022/09/22 05:04:02;;;;;;;1.15;1.15;;;;;;;;;;5048316;28;20045;-80
2022/09/22 05:06:27;;;;;;;1.65;1.35;;;;;;;;;;5048510;28;20024;-79
2022/09/22 05:08:53;;;;;;;1.20;1.10;;;;;;;;;;5039294;28;20112;-79
2022/09/22 05:11:22;;;;;;;0.95;0.85;;;;;;;;;;5046809;28;20268;-79
2022/09/22 05:13:48;;;;;;;2.50;1.45;;;;;;;;;;5033097;28;20433;-79
2022/09/22 05:16:13;;;;;;;1.20;1.08;;;;;;;;;;5046481;28;20052;-79
2022/09/22 05:18:38;;;;;;;2.27;1.23;;;;;;;;;;5033622;28;20099;-79
2022/09/22 05:21:06;;;;;;;3.13;1.20;;;;;;;;;;5032048;28;20253;-80
2022/09/22 05:23:31;;;;;;;2.50;1.27;;;;;;;;;;5033617;28;20252;-80
2022/09/22 05:25:57;;;;;;;16.55;1.55;;;;;;;;;;5045808;28;20017;-79
2022/09/22 05:28:23;;;;;;;1.48;1.17;;;;;;;;;;5032452;28;20026;-79
2022/09/22 05:30:48;;;;;;;2.67;1.92;;;;;;;;;;5033443;28;20047;-79
2022/09/22 05:33:14;;;;;;;1.48;1.10;;;;;;;;;;5035825;28;20473;-78
2022/09/22 05:35:40;;;;;;;2.65;0.93;;;;;;;;;;5042043;28;20017;-80
2022/09/22 05:38:05;;;;;;;1.20;1.10;;;;;;;;;;5049066;28;20027;-79
2022/09/22 05:40:30;;;;;;;0.90;0.65;;;;;;;;;;5051534;28;20017;-79
2022/09/22 05:42:56;;;;;;;1.38;1.27;;;;;;;;;;5045543;28;20025;-80
2022/09/22 05:45:22;;;;;;;1.35;1.10;;;;;;;;;;5032984;28;20018;-79
2022/09/22 05:47:47;;;;;;;2.30;1.27;;;;;;;;;;5032394;28;20032;-79
2022/09/22 05:50:14;;;;;;;1.40;1.10;;;;;;;;;;5031824;28;20082;-81
2022/09/22 05:52:39;;;;;;;1.25;1.10;;;;;;;;;;5041384;28;20025;-81
2022/09/22 05:55:05;;;;;;;1.88;1.02;;;;;;;;;;5042772;28;20013;-79
2022/09/22 05:57:31;;;;;;;5.82;1.80;;;;;;;;;;5043895;28;20040;-81
2022/09/22 05:59:56;;;;;;;2.00;1.48;;;;;;;;;;5031791;28;20031;-80
2022/09/22 06:02:22;;;;;;;2.33;1.38;;;;;;;;;;5037365;28;20151;-79
2022/09/22 06:04:47;;;;;;;1.33;0.93;;;;;;;;;;5039653;28;20077;-80
2022/09/22 06:07:13;;;;;;;2.05;1.35;;;;;;;;;;5031640;28;20028;-79
2022/09/22 06:09:38;;;;;;;1.02;0.95;;;;;;;;;;5031485;28;20027;-78
2022/09/22 06:12:03;;;;;;;1.33;1.20;;;;;;;;;;5031647;28;20014;-79
2022/09/22 06:14:29;;;;;;;1.80;0.90;;;;;;;;;;5031448;28;20256;-78
2022/09/22 06:16:54;;;;;;;0.97;0.87;;;;;;;;;;5032456;28;20021;-78
2022/09/22 06:19:22;;;;;;;1.15;0.90;;;;;;;;;;5043653;28;20863;-79
2022/09/22 06:21:47;;;;;;;1.08;1.00;;;;;;;;;;5038980;28;20029;-78
2022/09/22 06:24:12;;;;;;;1.95;1.20;;;;;;;;;;5032051;28;20025;-78
2022/09/22 06:26:38;;;;;;;1.03;0.93;;;;;;;;;;5031314;28;20465;-78
2022/09/22 06:29:03;;;;;;;1.17;1.08;;;;;;;;;;5047264;28;20299;-78
2022/09/22 06:31:29;;;;;;;1.23;1.00;;;;;;;;;;5031132;28;20542;-78
2022/09/22 06:33:54;;;;;;;1.73;1.08;;;;;;;;;;5040464;28;20013;-78
2022/09/22 06:36:30;;;;;;;1.02;0.50;;;;;;;;;;5044033;28;20028;-79
2022/09/22 06:38:57;;;;;;;1.77;1.08;;;;;;;;;;5033376;28;20025;-78
2022/09/22 06:41:23;;;;;;;1.52;0.82;;;;;;;;;;5045167;28;20031;-78
2022/09/22 06:43:49;;;;;;;1.23;1.13;;;;;;;;;;5045278;28;20021;-78
2022/09/22 06:46:17;;;;;;;1.50;0.70;;;;;;;;;;5051015;28;20074;-78
2022/09/22 06:48:44;;;;;;;1.10;1.00;;;;;;;;;;5050891;28;20500;-78
2022/09/22 06:51:09;;;;;;;1.27;1.00;;;;;;;;;;5050973;28;20116;-80
2022/09/22 06:53:34;;;;;;;1.58;0.85;;;;;;;;;;5050680;28;20110;-79
2022/09/22 06:56:03;;;;;;;2.20;1.08;;;;;;;;;;5041494;28;20017;-80
2022/09/22 06:58:28;;;;;;;3.58;0.85;;;;;;;;;;5044664;28;20031;-80
2022/09/22 07:00:56;;;;;;;0.80;0.80;;;;;;;;;;5040625;28;20455;-80
2022/09/22 07:03:24;;;;;;;0.85;0.80;;;;;;;;;;5046200;28;20027;-81
2022/09/22 07:05:53;;;;;;;0.82;0.73;;;;;;;;;;5044316;28;20056;-80
2022/09/22 07:08:19;;;;;;;0.85;0.77;;;;;;;;;;5041738;28;20020;-80
2022/09/22 07:10:44;;;;;;;0.95;0.90;;;;;;;;;;5041286;28;20116;-79
2022/09/22 07:13:10;;;;;;;0.70;0.70;;;;;;;;;;5040280;28;20108;-80
2022/09/22 07:15:35;;;;;;;0.70;0.70;;;;;;;;;;5039895;28;20033;-83
2022/09/22 07:18:01;;;;;;;0.50;0.50;;;;;;;;;;5042380;28;20079;-80
2022/09/22 07:20:27;;;;;;;0.77;0.77;;;;;;;;;;5047049;28;20059;-79
2022/09/22 07:22:59;;;;;;;1.50;1.40;;;;;;;;;;5041884;28;20017;-80
2022/09/22 07:25:25;;;;;;;0.85;0.80;;;;;;;;;;5037186;28;20045;-79
2022/09/22 07:27:51;;;;;;;1.30;0.98;;;;;;;;;;5034732;28;20061;-80
2022/09/22 07:30:16;;;;;;;1.10;1.00;;;;;;;;;;5045003;28;20021;-78
2022/09/22 07:32:41;;;;;;;1.33;1.25;;;;;;;;;;5041167;28;20362;-78
2022/09/22 07:35:07;;;;;;;0.80;0.80;;;;;;;;;;5043838;28;20500;-79
2022/09/22 07:37:34;;;;;;;0.95;0.70;;;;;;;;;;5043796;28;20481;-79
2022/09/22 07:40:01;;;;;;;0.73;0.63;;;;;;;;;;5044923;28;20113;-80
2022/09/22 07:42:26;;;;;;;1.52;0.80;;;;;;;;;;5034301;28;20044;-80
2022/09/22 07:48:36;;;;;;;0.60;0.60;;;;;;;;;;5035379;28;20024;-79
2022/09/22 07:50:30;;;;;;;0.57;0.40;;;;;;;;;;5046826;28;20040;-81
2022/09/22 07:52:55;;;;;;;0.73;0.50;;;;;;;;;;5045900;28;20017;-81
2022/09/22 07:55:23;;;;;;;0.88;0.57;;;;;;;;;;5042652;28;20060;-82
2022/09/22 07:57:52;;;;;;;0.93;0.70;;;;;;;;;;5035365;28;20068;-81
2022/09/22 08:00:17;;;;;;;0.77;0.63;;;;;;;;;;5042212;28;20021;-81
2022/09/22 08:02:43;;;;;;;2.95;0.70;;;;;;;;;;5041237;28;20028;-81
2022/09/22 08:05:09;;;;;;;0.50;0.50;;;;;;;;;;5041738;28;20064;-80
2022/09/22 08:07:36;;;;;;;0.50;0.35;;;;;;;;;;5044103;28;20109;-81
2022/09/22 08:10:01;;;;;;;0.77;0.70;;;;;;;;;;5039716;28;20397;-80
2022/09/22 08:12:27;;;;;;;0.82;0.82;;;;;;;;;;5045843;28;20108;-80
2022/09/22 08:14:52;;;;;;;0.50;0.50;;;;;;;;;;5040305;28;20024;-81
2022/09/22 08:17:18;;;;;;;0.45;0.45;;;;;;;;;;5036514;28;20100;-81
2022/09/22 08:19:43;;;;;;;4.05;0.73;;;;;;;;;;5041033;28;20060;-80
2022/09/22 08:22:09;;;;;;;0.32;0.32;;;;;;;;;;5042138;28;20373;-81
2022/09/22 08:24:36;;;;;;;0.60;0.60;;;;;;;;;;5041072;28;20017;-81
2022/09/22 08:27:01;;;;;;;0.35;0.35;;;;;;;;;;5042988;28;20021;-81
2022/09/22 08:29:26;;;;;;;0.90;0.60;;;;;;;;;;5041499;28;20504;-81
2022/09/22 08:31:52;;;;;;;0.50;0.50;;;;;;;;;;5040168;28;20013;-81
2022/09/22 08:34:18;;;;;;;0.55;0.55;;;;;;;;;;5039503;28;20029;-81
2022/09/22 08:36:47;;;;;;;0.45;0.45;;;;;;;;;;5041644;28;20013;-83
2022/09/22 08:39:12;;;;;;;;;;;;;;;;;;5041641;28;20619;-83
2022/09/22 08:41:56;;;;;;;0.47;0.47;;;;;;;;;;5042193;28;19964;-84
2022/09/22 08:44:23;;;;;;;0.45;0.40;;;;;;;;;;5046855;28;20485;-82
2022/09/22 08:46:51;;;;;;;0.70;0.70;;;;;;;;;;5043633;28;20495;-82
2022/09/22 08:52:49;;;;;;;0.73;0.60;;;;;;;;;;5045419;28;20036;-81
2022/09/22 08:55:24;;;;;;;0.63;0.63;;;;;;;;;;5046229;28;20032;-81
2022/09/22 08:57:59;;;;;;;1.70;0.52;;;;;;;;;;5044058;28;20025;-81
2022/09/22 09:00:26;;;;;;;0.70;0.50;;;;;;;;;;5044350;28;20029;-81
2022/09/22 09:03:04;;;;;;;0.50;0.50;;;;;;;;;;5042791;28;20480;-81
2022/09/22 09:05:48;;;;;;;1.10;0.60;;;;;;;;;;5043177;28;20049;-80
2022/09/22 09:08:20;;;;;;;1.38;1.00;;;;;;;;;;5050000;28;20033;-80
2022/09/22 09:10:52;;;;;;;0.65;0.52;;;;;;;;;;5046987;28;20025;-81
2022/09/22 09:13:39;;;;;;;0.47;0.40;;;;;;;;;;5041928;28;20075;-82
2022/09/22 09:16:05;;;;;;;;;;;;;;;;;;5043357;28;20116;-80
2022/09/22 09:18:36;;;;;;;0.73;0.53;;;;;;;;;;5032342;28;20000;-80
2022/09/22 09:21:07;;;;;;;0.55;0.55;;;;;;;;;;5048469;28;20116;-81
2022/09/22 09:23:44;;;;;;;1.52;0.60;;;;;;;;;;5039901;28;20492;-82
2022/09/22 09:26:10;;;;;;;2.05;0.80;;;;;;;;;;5032381;28;20041;-82
2022/09/22 09:28:43;;;;;;;0.70;0.60;;;;;;;;;;5033389;28;20052;-81
2022/09/22 09:31:17;;;;;;;1.27;0.93;;;;;;;;;;5041974;28;20025;-82
2022/09/22 09:33:52;;;;;;;0.50;0.50;;;;;;;;;;5038233;28;20021;-80
2022/09/22 09:36:21;;;;;;;0.60;0.60;;;;;;;;;;5048947;28;20033;-81
2022/09/22 09:38:49;;;;;;;0.73;0.50;;;;;;;;;;5048833;28;20057;-81
2022/09/22 09:41:16;;;;;;;0.43;0.43;;;;;;;;;;5032183;28;20025;-80
2022/09/22 09:43:44;;;;;;;1.10;0.60;;;;;;;;;;5033474;28;20033;-79
2022/09/22 09:46:13;;;;;;;0.52;0.52;;;;;;;;;;5039615;28;20025;-79
2022/09/22 09:48:39;;;;;;;0.40;0.40;;;;;;;;;;5041349;28;20538;-79
2022/09/22 09:51:08;;;;;;;0.50;0.50;;;;;;;;;;5031917;28;20041;-80
2022/09/22 09:53:37;;;;;;;1.45;0.50;;;;;;;;;;5034174;28;20017;-81
2022/09/22 09:56:12;;;;;;;0.30;0.30;;;;;;;;;;5041317;28;20465;-81
2022/09/22 10:01:39;;;;;;;4.38;0.68;;;;;;;;;;5039554;28;20209;-79
2022/09/22 10:04:04;;;;;;;1.55;0.63;;;;;;;;;;5031601;28;20049;-80
2022/09/22 10:06:30;;;;;;;0.40;0.40;;;;;;;;;;5038945;28;20495;-81
2022/09/22 10:08:56;;;;;;;0.43;0.43;;;;;;;;;;5031690;28;20126;-79
2022/09/22 10:11:30;;;;;;;1.20;0.47;;;;;;;;;;5032738;28;20049;-80
2022/09/22 10:13:56;;;;;;;0.32;0.32;;;;;;;;;;5031667;28;20497;-80
2022/09/22 10:16:25;;;;;;;0.40;0.40;;;;;;;;;;5031127;28;20021;-79
2022/09/22 10:19:01;;;;;;;0.30;0.30;;;;;;;;;;5042322;28;20480;-81
2022/09/22 10:21:27;;;;;;;0.45;0.35;;;;;;;;;;5032569;28;20033;-79
2022/09/22 10:23:56;;;;;;;0.70;0.70;;;;;;;;;;5031266;28;20452;-80
2022/09/22 10:26:26;;;;;;;0.40;0.40;;;;;;;;;;5035127;28;20017;-81
2022/09/22 10:29:10;;;;;;;0.40;0.40;;;;;;;;;;5046887;28;20021;-80
2022/09/22 10:31:38;;;;;;;1.23;0.50;;;;;;;;;;5035421;28;20465;-79
2022/09/22 10:34:05;;;;;;;0.47;0.47;;;;;;;;;;5040462;28;20025;-79
2022/09/22 10:36:32;;;;;;;0.52;0.50;;;;;;;;;;5031388;28;21458;-80
2022/09/22 10:38:57;;;;;;;0.40;0.40;;;;;;;;;;5050776;28;20032;-81
2022/09/22 10:41:27;;;;;;;0.98;0.50;;;;;;;;;;5036888;28;20440;-80
2022/09/22 10:43:59;;;;;;;1.85;0.52;;;;;;;;;;5037747;28;20373;-81
2022/09/22 10:46:45;;;;;;;0.93;0.47;;;;;;;;;;5031776;28;20026;-81
2022/09/22 10:49:16;;;;;;;0.25;0.25;;;;;;;;;;5035482;28;20030;-79
2022/09/22 10:51:47;;;;;;;1.55;0.75;;;;;;;;;;5041958;28;20025;-80
2022/09/22 10:54:16;;;;;;;0.50;0.40;;;;;;;;;;5041356;28;20017;-80
2022/09/22 10:56:53;;;;;;;0.68;0.45;;;;;;;;;;5040063;28;20493;-81
2022/09/22 10:59:24;;;;;;;0.60;0.60;;;;;;;;;;5044163;28;20032;-82
2022/09/22 11:01:56;;;;;;;0.32;0.32;;;;;;;;;;5044965;28;20037;-83
2022/09/22 11:04:30;;;;;;;0.43;0.43;;;;;;;;;;5030742;28;20045;-82
2022/09/22 11:13:05;;;;;;;0.32;0.32;;;;;;;;;;5038163;28;20083;-81
2022/09/22 11:15:43;;;;;;;0.30;0.30;;;;;;;;;;5037392;28;20048;-81
2022/09/22 11:18:28;;;;;;;0.50;0.50;;;;;;;;;;5043787;28;20022;-81
2022/09/22 11:21:06;;;;;;;0.65;0.65;;;;;;;;;;5040274;28;20031;-84
2022/09/22 11:23:50;;;;;;;0.30;0.30;;;;;;;;;;5050596;28;20013;-83
2022/09/22 11:26:27;;;;;;;0.55;0.45;;;;;;;;;;5039530;28;20025;-82
2022/09/22 11:28:53;;;;;;;;;;;;;;;;;;5036452;28;20051;-81
2022/09/22 11:31:37;;;;;;;0.30;0.30;;;;;;;;;;5038565;28;20361;-80
2022/09/22 11:34:05;;;;;;;0.30;0.30;;;;;;;;;;5040980;28;20025;-81
2022/09/22 11:36:33;;;;;;;0.47;0.47;;;;;;;;;;5033735;28;20021;-79
2022/09/22 11:39:08;;;;;;;1.10;0.85;;;;;;;;;;5031409;28;20029;-80
2022/09/22 11:41:47;;;;;;;1.13;0.47;;;;;;;;;;5045170;28;20025;-80
2022/09/22 11:44:31;;;;;;;0.40;0.40;;;;;;;;;;5044631;28;20030;-79
2022/09/22 11:47:22;;;;;;;0.30;0.30;;;;;;;;;;5034300;28;20489;-79
2022/09/22 11:50:03;;;;;;;0.38;0.38;;;;;;;;;;5045428;28;20066;-80
2022/09/22 11:52:58;;;;;;;0.50;0.30;;;;;;;;;;5040924;28;20040;-79
2022/09/22 11:55:30;;;;;;;0.20;0.20;;;;;;;;;;5032977;28;20173;-79
2022/09/22 11:58:00;;;;;;;0.40;0.30;;;;;;;;;;5034190;28;20068;-79
2022/09/22 12:00:28;;;;;;;0.20;0.20;;;;;;;;;;5033928;28;20033;-79
2022/09/22 12:03:09;;;;;;;0.30;0.30;;;;;;;;;;5039216;28;20047;-79
2022/09/22 12:05:41;;;;;;;0.68;0.60;;;;;;;;;;5041909;28;20060;-81
2022/09/22 12:08:19;;;;;;;0.98;0.20;;;;;;;;;;5040074;28;20017;-79
2022/09/22 12:10:44;;;;;;;;;;;;;;;;;;5051701;28;20026;-79
2022/09/22 12:13:15;;;;;;;0.30;0.30;;;;;;;;;;5037347;28;19909;-79
2022/09/22 12:15:57;;;;;;;0.22;0.22;;;;;;;;;;5043475;28;20039;-79
2022/09/22 12:18:34;;;;;;;0.40;0.40;;;;;;;;;;5038450;28;20017;-79
2022/09/22 12:21:02;;;;;;;0.40;0.40;;;;;;;;;;5042436;28;20112;-78
2022/09/22 12:23:36;;;;;;;3.50;0.30;;;;;;;;;;5041948;28;20013;-78
2022/09/22 12:26:03;;;;;;;1.85;0.40;;;;;;;;;;5041830;28;20079;-79
2022/09/22 12:28:30;;;;;;;0.23;0.20;;;;;;;;;;5040921;28;20033;-79
2022/09/22 12:31:03;;;;;;;0.30;0.30;;;;;;;;;;5034011;28;20044;-79
2022/09/22 12:33:29;;;;;;;0.60;0.30;;;;;;;;;;5043290;28;20055;-79
2022/09/22 12:35:55;;;;;;;0.50;0.50;;;;;;;;;;5035646;28;20101;-81
2022/09/22 12:38:21;;;;;;;0.30;0.30;;;;;;;;;;5033278;28;20176;-79
2022/09/22 12:40:48;;;;;;;0.30;0.30;;;;;;;;;;5033185;28;20057;-80
2022/09/22 12:43:18;;;;;;;0.20;0.20;;;;;;;;;;5043926;28;20025;-79
2022/09/22 12:45:43;;;;;;;0.30;0.30;;;;;;;;;;5053095;28;20110;-79
2022/09/22 12:48:12;;;;;;;0.30;0.30;;;;;;;;;;5046518;28;20025;-79
2022/09/22 12:50:39;;;;;;;2.65;0.40;;;;;;;;;;5046930;28;20014;-81
2022/09/22 12:53:22;;;;;;;0.30;0.30;;;;;;;;;;5039526;28;20087;-79
2022/09/22 12:55:48;;;;;;;0.40;0.40;;;;;;;;;;5044454;28;20028;-79
2022/09/22 12:58:20;;;;;;;0.40;0.40;;;;;;;;;;5043392;28;20028;-79
2022/09/22 13:00:46;;;;;;;0.40;0.40;;;;;;;;;;5032803;28;20461;-78
2022/09/22 13:03:24;;;;;;;0.40;0.30;;;;;;;;;;5036626;28;20029;-78
2022/09/22 13:05:50;;;;;;;0.40;0.40;;;;;;;;;;5038198;28;20579;-81
2022/09/22 13:08:17;;;;;;;6.80;0.50;;;;;;;;;;5046123;28;20026;-82
2022/09/22 13:10:49;;;;;;;0.20;0.20;;;;;;;;;;5046123;28;20053;-82
2022/09/22 13:13:29;;;;;;;0.40;0.40;;;;;;;;;;5040518;28;20017;-82
2022/09/22 13:15:58;;;;;;;0.30;0.30;;;;;;;;;;5042611;28;20056;-81
2022/09/22 13:18:40;;;;;;;1.70;0.40;;;;;;;;;;5052695;28;20099;-79
2022/09/22 13:21:11;;;;;;;0.35;0.35;;;;;;;;;;5048097;28;20052;-79
2022/09/22 13:23:59;;;;;;;0.25;0.25;;;;;;;;;;5043803;28;20017;-80
2022/09/22 13:26:26;;;;;;;1.75;0.80;;;;;;;;;;5043042;28;20116;-79
2022/09/22 13:29:11;;;;;;;1.35;0.45;;;;;;;;;;5039317;28;20513;-80
2022/09/22 13:31:39;;;;;;;0.47;0.47;;;;;;;;;;5055335;28;20099;-79
2022/09/22 13:34:17;;;;;;;0.35;0.30;;;;;;;;;;5041542;28;20017;-81
2022/09/22 13:36:43;;;;;;;0.28;0.28;;;;;;;;;;5042939;28;20074;-81
2022/09/22 13:39:12;;;;;;;0.30;0.30;;;;;;;;;;5041197;28;20119;-81
2022/09/22 13:41:41;;;;;;;0.30;0.30;;;;;;;;;;5041015;28;20029;-81
2022/09/22 13:44:09;;;;;;;0.38;0.38;;;;;;;;;;5037447;28;20018;-80
2022/09/22 13:46:39;;;;;;;0.32;0.30;;;;;;;;;;5040452;28;20021;-81
2022/09/22 13:49:07;;;;;;;0.30;0.30;;;;;;;;;;5045138;28;20105;-80
2022/09/22 13:51:33;;;;;;;0.75;0.30;;;;;;;;;;5036878;28;20074;-80
2022/09/22 13:53:59;;;;;;;0.93;0.40;;;;;;;;;;5046814;28;20025;-81
2022/09/22 13:56:25;;;;;;;0.40;0.40;;;;;;;;;;5044028;28;20021;-81
2022/09/22 13:58:53;;;;;;;0.20;0.20;;;;;;;;;;5042954;28;20033;-80
2022/09/22 14:01:20;;;;;;;0.30;0.30;;;;;;;;;;5037246;28;20503;-80
2022/09/22 14:03:46;;;;;;;0.30;0.30;;;;;;;;;;5043888;28;20024;-80
2022/09/22 14:06:13;;;;;;;0.90;0.40;;;;;;;;;;5034318;28;20029;-81
2022/09/22 14:08:38;;;;;;;1.85;0.47;;;;;;;;;;5041860;28;20496;-81
2022/09/22 14:11:06;;;;;;;0.20;0.20;;;;;;;;;;5045220;28;20049;-80
2022/09/22 14:13:36;;;;;;;0.30;0.30;;;;;;;;;;5045666;28;20028;-82
2022/09/22 14:37:49;;;;;;;0.30;0.30;;;;;;;-143.85;100.00;70650.75;5087459;27;1567804;-80
2022/09/22 14:40:20;;;;;;;0.20;0.20;;;;;;;-143.85;100.00;70650.75;5116051;28;20615;-82
2022/09/22 14:42:57;;;;;;;0.20;0.20;;;;;;;-143.85;100.00;70650.75;5114160;28;20086;-81
2022/09/22 14:45:26;;;;;;;0.30;0.30;;;;;;;-143.85;100.00;70650.75;5122890;27;20506;-80
2022/09/22 14:48:10;;;;;;;;;;;;;;;-143.85;100.00;70650.75;5119172;28;20044;-79
